LKKU  Kunovice Airport

Add Bookmark

Uherské Hradiště, Czech Republic

Status IATA
Operational UHE
Latitude Longitude
49° 1' 45" N 17° 26' 22" E
49.029400 17.439699
Local (DST + 2) UTC (GMT + 1)
Oct 21, 2014 10:41 Oct 21, 2014 08:41
Sunrise-Sunset Local UTC
Begin Civil Twilight 06:46 04:46
Sunrise 07:19 05:19
Sunset 05:50 15:50
End Civil Twilight 06:22 16:22

Current Weather

METAR Observed IFR
LKKU 210800Z 00000KT 4200 BR FEW001 SCT003 12/12 Q1012 Tue, Oct 21, 2014 @ 08:00 UTC
(41 Minutes ago)
Instrument Flight Rules
Wind Visibility Clouds Conditions
Calm 4000 meters
  • Few at 100' AGL
  • Scattered at 300' AGL
  • Mist
Temperatures Readings Precipitation
Current Temp 12°C (54°F)
Dewpoint 12°C (54°F)
Humidity 100%
Altimeter 29.88"Hg
Sea Level Pressure 1012mb
Field Elevation 580.71'
None Recorded

Additional weather within a 92.6km radius of LKKU

Map ICAO Location
LZPP 53.2km S (148°)
LKTB 55.9km W (284°)
LZZI 88.3km E (075°)
LKMT 88.5km N (033°)

24 Hour Weather History

Loading
-

24 Hour Weather Graphs

Loading
-

CheckWX.com is intended as a tool to help pilots better visualize weather data. It is not intended as a substitute for an official weather briefing obtained from a Flight Service Station. CheckWX.com does not meet the FAA requirements for an official pre-flight weather briefing. Therefore, it's important that pilots still call and obtain an official FSS pre-flight weather briefing.